createdAt,value
2022-08-07T00:01:12.593Z,19.90
2022-08-07T00:03:51.796Z,19.90
2022-08-07T00:06:20.451Z,19.80
2022-08-07T00:08:56.149Z,19.80
2022-08-07T00:11:33.142Z,19.80
2022-08-07T00:14:00.231Z,19.70
2022-08-07T00:16:28.639Z,19.70
2022-08-07T00:18:55.477Z,19.70
2022-08-07T00:21:56.729Z,19.70
2022-08-07T00:24:10.307Z,19.70
2022-08-07T00:26:49.024Z,19.70
2022-08-07T00:29:31.300Z,19.70
2022-08-07T00:31:59.740Z,19.70
2022-08-07T00:34:27.235Z,19.60
2022-08-07T00:36:56.510Z,19.60
2022-08-07T00:39:23.378Z,19.60
2022-08-07T00:42:05.346Z,19.50
2022-08-07T00:44:33.772Z,19.50
2022-08-07T00:47:01.989Z,19.50
2022-08-07T00:50:21.252Z,19.50
2022-08-07T00:52:17.656Z,19.50
2022-08-07T00:54:47.107Z,19.50
2022-08-07T00:57:23.023Z,19.50
2022-08-07T00:59:52.542Z,19.50
2022-08-07T01:02:28.067Z,19.50
2022-08-07T01:04:58.545Z,19.60
2022-08-07T01:07:27.566Z,19.50
2022-08-07T01:10:06.039Z,19.50
2022-08-07T01:12:38.675Z,19.50
2022-08-07T01:15:06.073Z,19.50
2022-08-07T01:17:34.330Z,19.50
2022-08-07T01:20:17.028Z,19.50
2022-08-07T01:22:58.450Z,19.50
2022-08-07T01:25:53.913Z,19.50
2022-08-07T01:28:19.964Z,19.40
2022-08-07T01:30:47.188Z,19.40
2022-08-07T01:33:18.111Z,19.30
2022-08-07T01:35:53.310Z,19.30
2022-08-07T01:38:25.229Z,19.30
2022-08-07T01:40:59.043Z,19.30
2022-08-07T01:43:26.826Z,19.30
2022-08-07T01:46:03.404Z,19.30
2022-08-07T01:48:32.535Z,19.30
2022-08-07T01:51:24.213Z,19.30
2022-08-07T01:54:09.328Z,19.30
2022-08-07T01:56:52.028Z,19.30
2022-08-07T01:59:30.838Z,19.30
2022-08-07T02:02:10.483Z,19.20
2022-08-07T02:04:56.561Z,19.20
2022-08-07T02:07:29.152Z,19.20
2022-08-07T02:10:14.333Z,19.20
2022-08-07T02:12:46.423Z,19.10
2022-08-07T02:15:22.938Z,19.10
2022-08-07T02:17:52.765Z,19.10
2022-08-07T02:20:23.668Z,19.10
2022-08-07T02:22:57.447Z,19.10
2022-08-07T02:26:10.859Z,19.10
2022-08-07T02:28:24.792Z,19.10
2022-08-07T02:30:56.392Z,19.10
2022-08-07T02:33:41.915Z,19.10
2022-08-07T02:36:29.721Z,19.10
2022-08-07T02:39:02.326Z,19.10
2022-08-07T02:41:50.493Z,19.00
2022-08-07T02:44:23.717Z,19.00
2022-08-07T02:46:56.376Z,19.00
2022-08-07T02:49:28.753Z,19.00
2022-08-07T02:51:58.826Z,18.90
2022-08-07T02:54:29.424Z,18.90
2022-08-07T02:56:58.720Z,18.90
2022-08-07T02:59:29.219Z,18.80
2022-08-07T03:01:57.699Z,18.90
2022-08-07T03:04:30.496Z,18.80
2022-08-07T03:07:03.414Z,18.80
2022-08-07T03:09:43.151Z,18.80
2022-08-07T03:12:21.712Z,18.80
2022-08-07T03:14:52.405Z,18.80
2022-08-07T03:17:22.045Z,18.80
2022-08-07T03:19:55.208Z,18.70
2022-08-07T03:22:24.274Z,18.70
2022-08-07T03:24:59.752Z,18.70
2022-08-07T03:27:30.836Z,18.60
2022-08-07T03:30:10.789Z,18.60
2022-08-07T03:32:57.069Z,18.60
2022-08-07T03:35:27.530Z,18.60
2022-08-07T03:38:13.296Z,18.60
2022-08-07T03:40:44.360Z,18.60
2022-08-07T03:43:14.537Z,18.60
2022-08-07T03:45:43.622Z,18.60
2022-08-07T03:48:14.881Z,18.60
2022-08-07T03:50:43.079Z,18.60
2022-08-07T03:53:18.816Z,18.50
2022-08-07T03:56:04.008Z,18.50
2022-08-07T03:59:04.835Z,18.50
2022-08-07T04:01:20.516Z,18.50
2022-08-07T04:03:55.071Z,18.50
2022-08-07T04:06:37.698Z,18.50
2022-08-07T04:09:08.365Z,18.50
2022-08-07T04:12:23.604Z,18.50
2022-08-07T04:14:37.705Z,18.50
2022-08-07T04:17:20.269Z,18.50
2022-08-07T04:19:52.515Z,18.60
2022-08-07T04:22:27.653Z,18.50
2022-08-07T04:24:58.170Z,18.50
2022-08-07T04:27:26.597Z,18.50
2022-08-07T04:30:01.350Z,18.50
2022-08-07T04:32:34.350Z,18.50
2022-08-07T04:35:03.933Z,18.50
2022-08-07T04:37:40.337Z,18.60
2022-08-07T04:40:21.138Z,18.50
2022-08-07T04:42:52.436Z,18.50
2022-08-07T04:45:44.525Z,18.50
2022-08-07T04:48:28.450Z,18.50
2022-08-07T04:51:16.069Z,18.60
2022-08-07T04:54:01.410Z,18.60
2022-08-07T04:58:12.436Z,18.60
2022-08-07T05:00:10.823Z,18.60
2022-08-07T05:02:54.982Z,18.70
2022-08-07T05:05:52.142Z,18.70
2022-08-07T05:08:59.110Z,18.80
2022-08-07T05:11:58.884Z,18.80
2022-08-07T05:14:51.991Z,18.80
2022-08-07T05:17:50.218Z,18.90
2022-08-07T05:20:09.938Z,18.90
2022-08-07T05:22:40.340Z,19.00
2022-08-07T05:25:11.788Z,19.00
2022-08-07T05:28:03.123Z,19.00
2022-08-07T05:30:44.552Z,19.10
2022-08-07T05:33:15.744Z,19.10
2022-08-07T05:35:45.981Z,19.20
2022-08-07T05:38:59.660Z,19.20
2022-08-07T05:41:12.359Z,19.30
2022-08-07T05:44:07.758Z,19.30
2022-08-07T05:46:33.593Z,19.30
2022-08-07T05:49:01.320Z,19.40
2022-08-07T05:51:39.967Z,19.50
2022-08-07T05:54:11.924Z,19.50
2022-08-07T05:56:56.080Z,19.60
2022-08-07T05:59:24.738Z,19.70
2022-08-07T06:01:52.393Z,19.80
2022-08-07T06:04:21.437Z,19.80
2022-08-07T06:07:03.904Z,19.90
2022-08-07T06:10:03.875Z,19.90
2022-08-07T06:12:21.112Z,20.00
2022-08-07T06:15:05.703Z,20.00
2022-08-07T06:17:38.169Z,20.10
2022-08-07T06:20:12.648Z,20.10
2022-08-07T06:23:02.291Z,20.20
2022-08-07T06:25:41.224Z,20.40
2022-08-07T06:28:27.202Z,20.40
2022-08-07T06:30:55.547Z,20.50
2022-08-07T06:33:23.711Z,20.60
2022-08-07T06:36:12.043Z,20.60
2022-08-07T06:38:37.152Z,20.70
2022-08-07T06:41:13.055Z,20.70
2022-08-07T06:43:46.159Z,20.80
2022-08-07T06:46:14.511Z,20.80
2022-08-07T06:48:44.616Z,20.90
2022-08-07T06:51:31.131Z,21.00
2022-08-07T06:55:31.764Z,21.00
2022-08-07T06:56:54.393Z,21.10
2022-08-07T07:00:12.996Z,21.20
2022-08-07T07:02:48.856Z,21.30
2022-08-07T07:05:09.494Z,21.50
2022-08-07T07:08:00.149Z,21.60
2022-08-07T07:10:31.316Z,21.80
2022-08-07T07:13:11.076Z,21.90
2022-08-07T07:15:44.502Z,22.00
2022-08-07T07:18:48.778Z,22.10
2022-08-07T07:21:19.965Z,22.30
2022-08-07T07:24:09.519Z,22.50
2022-08-07T07:26:37.998Z,22.60
2022-08-07T07:29:38.954Z,22.60
2022-08-07T07:32:08.532Z,22.80
2022-08-07T07:34:39.661Z,22.90
2022-08-07T07:37:21.712Z,23.00
2022-08-07T07:39:59.931Z,23.10
2022-08-07T07:42:32.774Z,23.30
2022-08-07T07:45:05.635Z,23.40
2022-08-07T07:47:52.287Z,23.50
2022-08-07T07:50:34.443Z,23.60
2022-08-07T07:53:20.249Z,23.70
2022-08-07T07:55:57.667Z,23.80
2022-08-07T07:58:30.865Z,23.90
2022-08-07T08:02:01.737Z,24.00
2022-08-07T08:04:09.773Z,24.10
2022-08-07T08:06:50.598Z,24.20
2022-08-07T08:09:22.789Z,24.30
2022-08-07T08:12:02.401Z,24.30
2022-08-07T08:14:36.632Z,24.40
2022-08-07T08:17:55.934Z,24.40
2022-08-07T08:20:19.142Z,24.50
2022-08-07T08:23:14.386Z,24.60
2022-08-07T08:26:06.670Z,24.70
2022-08-07T08:28:39.242Z,24.80
2022-08-07T08:31:16.282Z,24.90
2022-08-07T08:33:55.699Z,24.90
2022-08-07T08:36:30.435Z,25.00
2022-08-07T08:39:02.190Z,25.00
2022-08-07T08:41:59.893Z,25.20
2022-08-07T08:45:20.730Z,25.30
2022-08-07T08:48:35.962Z,25.40
2022-08-07T08:51:49.566Z,25.50
2022-08-07T08:54:24.955Z,25.60
2022-08-07T08:56:54.649Z,25.70
2022-08-07T08:59:42.209Z,25.80
2022-08-07T09:03:08.328Z,26.00
2022-08-07T09:05:46.591Z,26.10
2022-08-07T09:08:31.126Z,26.10
2022-08-07T09:11:24.896Z,26.40
2022-08-07T09:14:13.144Z,26.50
2022-08-07T09:17:20.630Z,26.70
2022-08-07T09:20:30.720Z,26.80
2022-08-07T09:24:30.449Z,26.90
2022-08-07T09:26:20.829Z,27.00
2022-08-07T09:30:07.034Z,27.10
2022-08-07T09:31:55.118Z,27.20
2022-08-07T09:34:53.962Z,27.30
2022-08-07T09:37:47.758Z,27.30
2022-08-07T09:40:53.214Z,27.30
2022-08-07T09:44:03.105Z,27.20
2022-08-07T09:47:51.887Z,27.30
2022-08-07T09:50:18.429Z,27.30
2022-08-07T09:52:56.795Z,27.30
2022-08-07T09:56:04.703Z,27.20
2022-08-07T09:58:56.360Z,27.30
2022-08-07T10:01:51.575Z,27.30
2022-08-07T10:04:47.635Z,27.40
2022-08-07T10:07:52.797Z,27.50
2022-08-07T10:12:00.545Z,27.60
2022-08-07T10:14:01.226Z,27.70
2022-08-07T10:16:50.506Z,27.80
2022-08-07T10:19:38.858Z,28.00
2022-08-07T10:22:33.716Z,28.10
2022-08-07T10:25:03.459Z,28.10
2022-08-07T10:27:45.840Z,28.20
2022-08-07T10:30:18.636Z,28.30
2022-08-07T10:33:14.808Z,28.40
2022-08-07T10:36:10.999Z,28.50
2022-08-07T10:39:05.401Z,28.50
2022-08-07T10:41:46.605Z,28.40
2022-08-07T10:44:38.514Z,28.40
2022-08-07T10:47:52.869Z,28.40
2022-08-07T10:50:25.980Z,28.40
2022-08-07T10:53:22.743Z,28.50
2022-08-07T10:56:02.292Z,28.60
2022-08-07T10:58:59.861Z,28.80
2022-08-07T11:02:04.775Z,28.90
2022-08-07T11:04:45.597Z,29.00
2022-08-07T11:07:59.205Z,29.20
2022-08-07T11:10:39.943Z,29.40
2022-08-07T11:14:45.488Z,29.40
2022-08-07T11:16:36.157Z,29.40
2022-08-07T11:19:14.226Z,29.60
2022-08-07T11:22:03.465Z,29.70
2022-08-07T11:24:53.661Z,29.90
2022-08-07T11:27:33.538Z,30.00
2022-08-07T11:30:19.246Z,30.20
2022-08-07T11:33:02.617Z,30.50
2022-08-07T11:36:08.151Z,30.70
2022-08-07T11:38:53.627Z,31.10
2022-08-07T11:42:00.224Z,31.20
2022-08-07T11:44:33.345Z,31.30
2022-08-07T11:47:39.204Z,31.30
2022-08-07T11:50:58.396Z,31.50
2022-08-07T11:53:43.328Z,32.00
2022-08-07T11:56:53.221Z,32.30
2022-08-07T12:00:11.341Z,32.70
2022-08-07T12:02:37.680Z,32.60
2022-08-07T12:05:47.295Z,32.70
2022-08-07T12:08:26.025Z,32.90
2022-08-07T12:11:21.038Z,33.10
2022-08-07T12:14:05.437Z,33.30
2022-08-07T12:16:37.444Z,33.40
2022-08-07T12:19:35.550Z,33.50
2022-08-07T12:22:58.546Z,33.50
2022-08-07T12:26:03.467Z,33.30
2022-08-07T12:29:03.670Z,33.20
2022-08-07T12:32:13.173Z,33.30
2022-08-07T12:34:42.135Z,33.20
2022-08-07T12:37:23.347Z,33.10
2022-08-07T12:39:58.706Z,33.10
2022-08-07T12:42:28.450Z,32.90
2022-08-07T12:45:09.021Z,32.90
2022-08-07T12:47:44.019Z,32.90
2022-08-07T12:50:38.899Z,32.90
2022-08-07T12:53:27.534Z,32.70
2022-08-07T12:56:19.210Z,32.90
2022-08-07T12:58:57.345Z,32.80
2022-08-07T13:01:49.816Z,32.60
2022-08-07T13:04:34.497Z,32.60
2022-08-07T13:07:02.188Z,32.50
2022-08-07T13:10:29.104Z,32.50
2022-08-07T13:13:00.352Z,32.50
2022-08-07T13:15:37.722Z,32.40
2022-08-07T13:18:30.039Z,32.20
2022-08-07T13:21:12.675Z,32.10
2022-08-07T13:24:00.887Z,32.00
2022-08-07T13:26:53.927Z,31.90
2022-08-07T13:29:36.332Z,31.70
2022-08-07T13:32:32.234Z,31.60
2022-08-07T13:35:21.948Z,31.50
2022-08-07T13:38:24.541Z,31.40
2022-08-07T13:41:41.533Z,31.30
2022-08-07T13:44:10.304Z,31.20
2022-08-07T13:46:49.244Z,31.20
2022-08-07T13:50:34.307Z,31.20
2022-08-07T13:52:30.467Z,31.20
2022-08-07T13:54:59.589Z,31.20
2022-08-07T13:57:32.120Z,31.20
2022-08-07T14:00:08.493Z,31.30
2022-08-07T14:02:56.534Z,31.40
2022-08-07T14:05:24.902Z,31.30
2022-08-07T14:08:07.121Z,31.30
2022-08-07T14:10:42.460Z,31.10
2022-08-07T14:13:19.119Z,31.10
2022-08-07T14:15:57.003Z,31.10
2022-08-07T14:18:32.634Z,31.20
2022-08-07T14:21:21.119Z,31.30
2022-08-07T14:24:12.789Z,31.30
2022-08-07T14:26:50.712Z,31.20
2022-08-07T14:30:06.340Z,31.30
2022-08-07T14:32:12.411Z,31.30
2022-08-07T14:34:46.997Z,31.30
2022-08-07T14:37:18.390Z,31.20
2022-08-07T14:40:17.071Z,31.00
2022-08-07T14:43:55.809Z,30.90
2022-08-07T14:48:20.937Z,30.90
2022-08-07T14:50:53.780Z,30.90
2022-08-07T14:54:05.764Z,30.80
2022-08-07T14:56:13.061Z,30.70
2022-08-07T14:58:44.987Z,30.80
2022-08-07T15:01:21.951Z,30.70
2022-08-07T15:03:53.421Z,30.70
2022-08-07T15:06:25.550Z,30.80
2022-08-07T15:08:54.957Z,30.70
2022-08-07T15:11:50.857Z,30.60
2022-08-07T15:14:17.977Z,30.50
2022-08-07T15:16:55.251Z,30.30
2022-08-07T15:20:31.500Z,30.30
2022-08-07T15:25:17.001Z,30.20
2022-08-07T15:28:32.477Z,30.20
2022-08-07T15:31:04.992Z,30.10
2022-08-07T15:36:14.727Z,30.20
2022-08-07T15:39:12.394Z,30.20
2022-08-07T15:44:52.207Z,30.10
2022-08-07T15:48:00.978Z,30.10
2022-08-07T15:50:37.445Z,30.10
2022-08-07T15:53:51.730Z,30.00
2022-08-07T15:56:24.552Z,30.00
2022-08-07T15:58:55.065Z,29.90
2022-08-07T16:01:38.448Z,29.80
2022-08-07T16:04:14.501Z,29.70
2022-08-07T16:06:54.430Z,29.60
2022-08-07T16:09:42.329Z,29.60
2022-08-07T16:12:28.898Z,29.60
2022-08-07T16:15:55.556Z,29.60
2022-08-07T16:18:50.004Z,29.60
2022-08-07T16:22:03.301Z,29.60
2022-08-07T16:24:52.659Z,29.50
2022-08-07T16:27:19.698Z,29.50
2022-08-07T16:30:10.656Z,29.40
2022-08-07T16:32:54.928Z,29.30
2022-08-07T16:35:58.302Z,29.30
2022-08-07T16:39:00.842Z,29.20
2022-08-07T16:42:01.339Z,29.10
2022-08-07T16:45:19.455Z,29.00
2022-08-07T16:48:09.096Z,29.00
2022-08-07T16:51:07.413Z,28.90
2022-08-07T16:54:06.439Z,28.80
2022-08-07T16:56:53.606Z,28.80
2022-08-07T16:59:45.739Z,28.80
2022-08-07T17:02:28.362Z,28.80
2022-08-07T17:06:01.927Z,28.70
2022-08-07T17:08:09.147Z,28.70
2022-08-07T17:10:54.705Z,28.70
2022-08-07T17:13:24.902Z,28.60
2022-08-07T17:16:22.046Z,28.50
2022-08-07T17:18:51.891Z,28.40
2022-08-07T17:21:51.308Z,28.30
2022-08-07T17:24:40.688Z,28.30
2022-08-07T17:27:29.741Z,28.20
2022-08-07T17:30:15.475Z,28.20
2022-08-07T17:33:02.956Z,28.20
2022-08-07T17:35:54.954Z,28.20
2022-08-07T17:38:33.482Z,28.10
2022-08-07T17:42:02.041Z,28.10
2022-08-07T17:44:34.164Z,28.10
2022-08-07T17:47:42.098Z,28.00
2022-08-07T17:50:34.418Z,27.90
2022-08-07T17:53:59.457Z,27.80
2022-08-07T17:56:25.886Z,27.80
2022-08-07T17:58:56.855Z,27.80
2022-08-07T18:01:36.724Z,27.70
2022-08-07T18:04:31.246Z,27.70
2022-08-07T18:07:20.776Z,27.70
2022-08-07T18:10:06.175Z,27.60
2022-08-07T18:12:53.967Z,27.60
2022-08-07T18:15:33.099Z,27.60
2022-08-07T18:18:45.242Z,27.60
2022-08-07T18:21:42.238Z,27.50
2022-08-07T18:24:07.722Z,27.50
2022-08-07T18:26:42.749Z,27.40
2022-08-07T18:30:07.239Z,27.40
2022-08-07T18:33:10.606Z,27.30
2022-08-07T18:35:51.862Z,27.20
2022-08-07T18:38:57.381Z,27.00
2022-08-07T18:41:45.675Z,27.00
2022-08-07T18:44:45.952Z,26.80
2022-08-07T18:47:45.103Z,26.80
2022-08-07T18:50:43.971Z,26.70
2022-08-07T18:53:39.585Z,26.60
2022-08-07T18:56:31.826Z,26.50
2022-08-07T18:59:47.186Z,26.40
2022-08-07T19:02:39.571Z,26.30
2022-08-07T19:06:03.557Z,26.10
2022-08-07T19:08:27.414Z,26.10
2022-08-07T19:11:06.880Z,25.90
2022-08-07T19:14:19.895Z,25.80
2022-08-07T19:17:04.706Z,25.80
2022-08-07T19:20:06.463Z,25.70
2022-08-07T19:23:18.267Z,25.60
2022-08-07T19:26:25.216Z,25.50
2022-08-07T19:30:53.820Z,25.40
2022-08-07T19:31:59.722Z,25.30
2022-08-07T19:34:34.428Z,25.20
2022-08-07T19:37:10.259Z,25.20
2022-08-07T19:39:56.635Z,25.10
2022-08-07T19:42:26.882Z,25.00
2022-08-07T19:45:08.251Z,24.90
2022-08-07T19:47:41.827Z,24.90
2022-08-07T19:50:44.001Z,24.90
2022-08-07T19:52:59.274Z,24.80
2022-08-07T19:55:57.548Z,24.70
2022-08-07T19:58:18.407Z,24.70
2022-08-07T20:00:57.854Z,24.60
2022-08-07T20:03:33.492Z,24.50
2022-08-07T20:06:04.552Z,24.40
2022-08-07T20:08:35.172Z,24.40
2022-08-07T20:11:10.022Z,24.30
2022-08-07T20:13:53.795Z,24.30
2022-08-07T20:16:35.149Z,24.20
2022-08-07T20:19:06.097Z,24.10
2022-08-07T20:21:41.623Z,24.10
2022-08-07T20:24:36.471Z,24.00
2022-08-07T20:27:11.775Z,23.90
2022-08-07T20:29:58.134Z,23.80
2022-08-07T20:32:40.168Z,23.80
2022-08-07T20:35:26.231Z,23.80
2022-08-07T20:37:58.569Z,23.80
2022-08-07T20:40:34.502Z,23.80
2022-08-07T20:43:09.505Z,23.70
2022-08-07T20:46:26.044Z,23.70
2022-08-07T20:48:34.534Z,23.70
2022-08-07T20:51:04.893Z,23.70
2022-08-07T20:54:03.404Z,23.60
2022-08-07T20:56:28.772Z,23.70
2022-08-07T20:59:00.199Z,23.60
2022-08-07T21:01:45.984Z,23.60
2022-08-07T21:04:22.623Z,23.70
2022-08-07T21:06:55.200Z,23.60
2022-08-07T21:09:51.914Z,23.60
2022-08-07T21:12:29.355Z,23.70
2022-08-07T21:15:02.859Z,23.60
2022-08-07T21:18:03.444Z,23.60
2022-08-07T21:20:29.763Z,23.50
2022-08-07T21:23:08.475Z,23.50
2022-08-07T21:25:45.236Z,23.50
2022-08-07T21:28:48.743Z,23.50
2022-08-07T21:32:42.271Z,23.40
2022-08-07T21:34:52.145Z,23.30
2022-08-07T21:37:25.784Z,23.30
2022-08-07T21:40:01.952Z,23.20
2022-08-07T21:42:42.605Z,23.10
2022-08-07T21:46:03.504Z,23.10
2022-08-07T21:48:33.624Z,23.00
2022-08-07T21:51:32.963Z,22.90
2022-08-07T21:54:45.905Z,22.80
2022-08-07T21:57:52.061Z,22.70
2022-08-07T22:00:25.093Z,22.60
2022-08-07T22:03:03.611Z,22.50
2022-08-07T22:05:45.572Z,22.50
2022-08-07T22:08:19.844Z,22.50
2022-08-07T22:10:54.924Z,22.50
2022-08-07T22:13:50.345Z,22.50
2022-08-07T22:16:40.195Z,22.50
2022-08-07T22:19:18.149Z,22.50
2022-08-07T22:22:18.213Z,22.50
2022-08-07T22:25:07.535Z,22.50
2022-08-07T22:28:03.031Z,22.50
2022-08-07T22:30:36.079Z,22.40
2022-08-07T22:33:09.618Z,22.40
2022-08-07T22:36:04.484Z,22.40
2022-08-07T22:38:38.103Z,22.40
2022-08-07T22:41:20.842Z,22.30
2022-08-07T22:44:01.520Z,22.30
2022-08-07T22:47:03.603Z,22.20
2022-08-07T22:49:42.831Z,22.20
2022-08-07T22:52:39.973Z,22.20
2022-08-07T22:55:51.527Z,22.20
2022-08-07T22:58:49.577Z,22.10
2022-08-07T23:01:50.878Z,22.10
2022-08-07T23:04:57.662Z,22.10
2022-08-07T23:07:56.763Z,22.10
2022-08-07T23:10:37.601Z,22.10
2022-08-07T23:13:29.334Z,22.10
2022-08-07T23:16:55.438Z,22.10
2022-08-07T23:20:12.143Z,22.10
2022-08-07T23:23:05.088Z,22.10
2022-08-07T23:26:01.149Z,22.10
2022-08-07T23:28:54.605Z,22.10
2022-08-07T23:34:20.231Z,22.10
2022-08-07T23:35:16.697Z,22.00
2022-08-07T23:38:36.700Z,22.00
2022-08-07T23:41:47.526Z,22.00
2022-08-07T23:45:06.171Z,21.90
2022-08-07T23:47:48.088Z,21.90
2022-08-07T23:50:40.895Z,21.90
2022-08-07T23:53:51.421Z,21.90
2022-08-07T23:56:50.352Z,21.90
